Time;durP1;ratioP1;P1;durP2;ratioP2;P2;SDS_P1;SDS_P2;PMS_P1;PMS_P2;Temp;Humidity;BMP_temperature;BMP_pressure;BME280_temperature;BME280_humidity;BME280_pressure;Samples;Min_cycle;Max_cycle;Signal;HPM_P1;HPM_P2
2021/06/20 00:00:09;;;;;;;;;;;24.90;75.80;;;;;;5056182;28;20019;-76
2021/06/20 00:02:35;;;;;;;;;;;24.90;75.90;;;;;;5055046;28;19919;-76
2021/06/20 00:05:01;;;;;;;;;;;24.80;76.60;;;;;;5051491;28;20280;-77
2021/06/20 00:07:26;;;;;;;;;;;24.80;76.20;;;;;;5053441;28;19975;-76
2021/06/20 00:09:52;;;;;;;;;;;24.80;76.40;;;;;;5055544;28;19909;-77
2021/06/20 00:12:18;;;;;;;;;;;24.70;76.80;;;;;;5037325;28;19919;-77
2021/06/20 00:14:43;;;;;;;;;;;24.70;77.00;;;;;;5049160;28;19925;-77
2021/06/20 00:17:09;;;;;;;;;;;24.60;77.00;;;;;;5056559;28;19924;-78
2021/06/20 00:19:34;;;;;;;;;;;24.50;77.40;;;;;;5037357;28;19963;-78
2021/06/20 00:22:00;;;;;;;;;;;24.70;76.30;;;;;;5055243;28;20268;-78
2021/06/20 00:24:25;;;;;;;;;;;24.70;77.50;;;;;;5055146;28;19920;-78
2021/06/20 00:26:51;;;;;;;;;;;24.60;77.10;;;;;;5030070;28;19913;-77
2021/06/20 00:29:16;;;;;;;;;;;24.50;78.30;;;;;;5053713;28;19916;-78
2021/06/20 00:31:42;;;;;;;;;;;24.30;79.50;;;;;;5056275;28;19920;-77
2021/06/20 00:34:07;;;;;;;;;;;24.10;80.10;;;;;;5051396;28;20298;-78
2021/06/20 00:36:33;;;;;;;;;;;23.80;81.70;;;;;;5053819;28;19914;-77
2021/06/20 00:38:58;;;;;;;;;;;23.60;81.80;;;;;;5033630;28;19913;-78
2021/06/20 00:41:24;;;;;;;;;;;23.50;82.20;;;;;;5042033;28;19916;-78
2021/06/20 00:43:49;;;;;;;;;;;23.40;82.70;;;;;;5047232;28;19967;-78
2021/06/20 00:46:15;;;;;;;;;;;23.20;82.70;;;;;;5039019;28;19920;-78
2021/06/20 00:48:40;;;;;;;;;;;23.10;83.40;;;;;;5051978;28;19924;-76
2021/06/20 00:51:06;;;;;;;;;;;23.00;84.00;;;;;;5053088;28;20361;-76
2021/06/20 00:53:36;;;;;;;;;;;23.00;83.70;;;;;;5053701;28;19952;-77
2021/06/20 00:56:02;;;;;;;;;;;23.00;84.30;;;;;;5051302;28;19923;-78
2021/06/20 00:58:28;;;;;;;;;;;22.90;84.50;;;;;;5052393;28;19913;-78
2021/06/20 01:00:54;;;;;;;;;;;22.80;84.80;;;;;;5052558;28;19935;-77
2021/06/20 01:03:19;;;;;;;;;;;22.70;85.30;;;;;;5034992;28;19916;-78
2021/06/20 01:05:45;;;;;;;;;;;22.70;85.90;;;;;;5052038;28;20023;-78
2021/06/20 01:08:11;;;;;;;;;;;22.60;86.20;;;;;;5036057;28;19913;-77
2021/06/20 01:10:36;;;;;;;;;;;22.40;87.20;;;;;;5036549;28;19920;-78
2021/06/20 01:13:06;;;;;;;;;;;22.20;87.90;;;;;;5054969;28;19968;-77
2021/06/20 01:15:32;;;;;;;;;;;22.10;88.20;;;;;;5051920;28;19921;-78
2021/06/20 01:17:57;;;;;;;;;;;21.90;88.40;;;;;;5049532;28;19920;-78
2021/06/20 01:20:23;;;;;;;;;;;21.90;88.40;;;;;;5048674;28;19916;-77
2021/06/20 01:22:50;;;;;;;;;;;21.90;88.50;;;;;;5053470;28;20003;-78
2021/06/20 01:25:17;;;;;;;;;;;21.90;88.80;;;;;;5055297;28;19970;-78
2021/06/20 01:27:45;;;;;;;;;;;21.80;89.20;;;;;;5055809;28;19919;-78
2021/06/20 01:30:13;;;;;;;;;;;21.80;89.50;;;;;;5053812;28;19924;-77
2021/06/20 01:32:39;;;;;;;;;;;21.70;89.70;;;;;;5055226;28;19913;-76
2021/06/20 01:35:05;;;;;;;;;;;21.50;90.20;;;;;;5051277;28;19935;-76
2021/06/20 01:37:34;;;;;;;;;;;21.40;90.40;;;;;;5054466;28;20321;-76
2021/06/20 01:40:00;;;;;;;;;;;21.40;90.30;;;;;;5052012;28;19966;-77
2021/06/20 01:42:26;;;;;;;;;;;21.50;90.40;;;;;;5059008;28;19918;-77
2021/06/20 01:44:53;;;;;;;;;;;21.70;89.80;;;;;;5060185;28;20278;-78
2021/06/20 01:47:20;;;;;;;;;;;21.90;89.40;;;;;;5059501;28;20245;-78
2021/06/20 01:49:46;;;;;;;;;;;22.00;88.90;;;;;;5059224;28;19959;-78
2021/06/20 01:52:12;;;;;;;;;;;22.10;88.80;;;;;;5057978;28;19955;-77
2021/06/20 01:54:49;;;;;;;;;;;22.10;88.60;;;;;;5053526;28;20016;-78
2021/06/20 01:57:16;;;;;;;;;;;22.10;88.20;;;;;;5055913;28;19963;-78
2021/06/20 01:59:42;;;;;;;;;;;22.10;88.50;;;;;;5057704;28;19913;-78
2021/06/20 02:02:07;;;;;;;;;;;22.10;88.60;;;;;;5055558;28;20214;-78
2021/06/20 02:04:33;;;;;;;;;;;22.00;88.60;;;;;;5052916;28;20310;-76
2021/06/20 02:06:58;;;;;;;;;;;22.00;88.40;;;;;;5056289;28;19913;-77
2021/06/20 02:09:24;;;;;;;;;;;22.00;88.30;;;;;;5039758;28;19909;-77
2021/06/20 02:11:49;;;;;;;;;;;22.00;88.30;;;;;;5055739;28;19913;-77
2021/06/20 02:14:16;;;;;;;;;;;22.10;88.10;;;;;;5058145;28;19920;-77
2021/06/20 02:16:41;;;;;;;;;;;22.20;87.40;;;;;;5034298;28;19955;-77
2021/06/20 02:19:07;;;;;;;;;;;22.40;86.70;;;;;;5058952;28;19956;-78
2021/06/20 02:21:32;;;;;;;;;;;22.50;86.20;;;;;;5055557;28;19978;-77
2021/06/20 02:23:58;;;;;;;;;;;22.60;85.90;;;;;;5056618;28;19962;-76
2021/06/20 02:26:24;;;;;;;;;;;22.70;85.50;;;;;;5058004;28;19921;-78
2021/06/20 02:28:49;;;;;;;;;;;22.70;85.40;;;;;;5057147;28;20259;-77
2021/06/20 02:31:15;;;;;;;;;;;22.80;85.00;;;;;;5040424;28;19920;-77
2021/06/20 02:33:40;;;;;;;;;;;22.80;85.10;;;;;;5055596;28;19917;-76
2021/06/20 02:36:06;;;;;;;;;;;22.70;85.20;;;;;;5056203;28;20216;-77
2021/06/20 02:38:31;;;;;;;;;;;22.60;85.10;;;;;;5057015;28;19921;-77
2021/06/20 02:40:57;;;;;;;;;;;22.60;84.70;;;;;;5053257;28;20004;-77
2021/06/20 02:43:22;;;;;;;;;;;22.60;84.50;;;;;;5052820;28;19920;-78
2021/06/20 02:45:48;;;;;;;;;;;22.60;84.80;;;;;;5055836;28;19913;-77
2021/06/20 02:48:13;;;;;;;;;;;22.60;84.80;;;;;;5054565;28;19924;-75
2021/06/20 02:50:40;;;;;;;;;;;22.50;84.90;;;;;;5055821;28;20352;-76
2021/06/20 02:53:05;;;;;;;;;;;22.50;84.80;;;;;;5054272;28;19920;-77
2021/06/20 02:55:31;;;;;;;;;;;22.50;85.00;;;;;;5039800;28;19917;-76
2021/06/20 02:57:56;;;;;;;;;;;22.50;85.00;;;;;;5054712;28;19920;-78
2021/06/20 03:00:22;;;;;;;;;;;22.50;85.20;;;;;;5057575;28;19913;-77
2021/06/20 03:02:47;;;;;;;;;;;22.50;85.40;;;;;;5057693;28;19912;-78
2021/06/20 03:05:13;;;;;;;;;;;22.40;85.40;;;;;;5055834;28;20008;-79
2021/06/20 03:07:38;;;;;;;;;;;22.40;85.60;;;;;;5056749;28;19913;-79
2021/06/20 03:10:05;;;;;;;;;;;22.40;85.60;;;;;;5056126;28;19917;-79
2021/06/20 03:12:30;;;;;;;;;;;22.30;85.60;;;;;;5031871;28;20372;-77
2021/06/20 03:14:56;;;;;;;;;;;22.30;85.50;;;;;;5046111;28;19921;-78
2021/06/20 03:17:21;;;;;;;;;;;22.30;85.30;;;;;;5035608;28;19959;-77
2021/06/20 03:19:48;;;;;;;;;;;22.40;84.70;;;;;;5057469;28;20050;-77
2021/06/20 03:22:13;;;;;;;;;;;22.40;84.90;;;;;;5053954;28;20394;-78
2021/06/20 03:24:41;;;;;;;;;;;22.40;85.20;;;;;;5052814;28;19913;-77
2021/06/20 03:27:06;;;;;;;;;;;22.40;85.40;;;;;;5056158;28;20019;-77
2021/06/20 03:29:32;;;;;;;;;;;22.30;85.50;;;;;;5039619;28;20233;-77
2021/06/20 03:31:57;;;;;;;;;;;22.20;85.70;;;;;;5054586;28;20198;-77
2021/06/20 03:34:23;;;;;;;;;;;22.20;85.70;;;;;;5055743;28;19921;-78
2021/06/20 03:36:48;;;;;;;;;;;22.20;85.70;;;;;;5035545;28;19935;-77
2021/06/20 03:39:14;;;;;;;;;;;22.20;85.60;;;;;;5054525;28;19924;-78
2021/06/20 03:41:40;;;;;;;;;;;22.20;85.30;;;;;;5056362;28;20267;-77
2021/06/20 03:44:09;;;;;;;;;;;22.20;84.30;;;;;;5053003;28;19913;-78
2021/06/20 03:46:35;;;;;;;;;;;22.40;82.10;;;;;;5053931;28;19923;-77
2021/06/20 03:49:00;;;;;;;;;;;22.50;81.50;;;;;;5056333;28;19909;-76
2021/06/20 03:51:26;;;;;;;;;;;22.60;81.40;;;;;;5036102;28;20225;-77
2021/06/20 03:53:51;;;;;;;;;;;22.60;81.40;;;;;;5056695;28;19935;-78
2021/06/20 03:56:17;;;;;;;;;;;22.50;81.60;;;;;;5054010;28;20361;-79
2021/06/20 03:58:42;;;;;;;;;;;22.50;81.30;;;;;;5053599;28;19920;-79
2021/06/20 04:01:08;;;;;;;;;;;22.50;81.10;;;;;;5055117;28;20003;-79
2021/06/20 04:03:33;;;;;;;;;;;22.50;81.20;;;;;;5050140;28;20006;-79
2021/06/20 04:05:59;;;;;;;;;;;22.50;81.20;;;;;;5054203;28;19935;-77
2021/06/20 04:08:24;;;;;;;;;;;22.50;81.10;;;;;;5052191;28;20275;-77
2021/06/20 04:10:50;;;;;;;;;;;22.40;81.40;;;;;;5052843;28;20210;-77
2021/06/20 04:13:15;;;;;;;;;;;22.40;81.70;;;;;;5052732;28;19986;-77
2021/06/20 04:15:41;;;;;;;;;;;22.30;81.90;;;;;;5055598;28;19985;-77
2021/06/20 04:18:07;;;;;;;;;;;22.20;81.50;;;;;;5050653;28;19921;-77
2021/06/20 04:20:33;;;;;;;;;;;22.20;81.50;;;;;;5050696;28;19920;-78
2021/06/20 04:22:59;;;;;;;;;;;22.30;81.30;;;;;;5034284;28;19913;-77
2021/06/20 04:25:24;;;;;;;;;;;22.20;81.10;;;;;;5051468;28;19916;-78
2021/06/20 04:27:50;;;;;;;;;;;22.30;81.00;;;;;;5050989;28;19917;-77
2021/06/20 04:30:19;;;;;;;;;;;22.20;81.00;;;;;;5050520;28;20352;-76
2021/06/20 04:32:45;;;;;;;;;;;22.30;81.00;;;;;;5053056;28;19951;-76
2021/06/20 04:35:11;;;;;;;;;;;22.30;81.00;;;;;;5050081;28;19979;-76
2021/06/20 04:37:38;;;;;;;;;;;22.30;80.60;;;;;;5050004;28;20213;-76
2021/06/20 04:40:04;;;;;;;;;;;22.40;79.10;;;;;;5052094;28;20329;-78
2021/06/20 04:42:35;;;;;;;;;;;22.30;78.80;;;;;;5051019;28;19963;-78
2021/06/20 04:45:02;;;;;;;;;;;22.40;78.20;;;;;;5050749;28;19952;-78
2021/06/20 04:47:28;;;;;;;;;;;22.40;78.10;;;;;;5049399;28;19948;-77
2021/06/20 04:49:54;;;;;;;;;;;22.40;77.70;;;;;;5050817;28;19962;-78
2021/06/20 04:52:19;;;;;;;;;;;22.40;77.30;;;;;;5049582;28;20711;-78
2021/06/20 04:54:51;;;;;;;;;;;22.50;76.50;;;;;;5035119;28;19920;-77
2021/06/20 04:57:19;;;;;;;;;;;22.60;76.10;;;;;;5031556;28;20225;-77
2021/06/20 04:59:44;;;;;;;;;;;22.60;75.70;;;;;;5051691;28;19916;-78
2021/06/20 05:02:10;;;;;;;;;;;22.60;75.20;;;;;;5052355;28;19913;-78
2021/06/20 05:04:36;;;;;;;;;;;22.70;74.70;;;;;;5032572;28;20035;-78
2021/06/20 05:07:02;;;;;;;;;;;22.80;75.00;;;;;;5047017;28;20369;-78
2021/06/20 05:09:28;;;;;;;;;;;22.90;74.60;;;;;;5049982;28;19966;-77
2021/06/20 05:11:53;;;;;;;;;;;23.00;74.20;;;;;;5033249;28;19917;-77
2021/06/20 05:14:19;;;;;;;;;;;23.10;73.40;;;;;;5033914;28;19917;-78
2021/06/20 05:16:44;;;;;;;;;;;23.20;73.60;;;;;;5047527;28;19927;-76
2021/06/20 05:19:11;;;;;;;;;;;23.40;73.10;;;;;;5051495;28;19913;-77
2021/06/20 05:21:36;;;;;;;;;;;23.40;73.10;;;;;;5049799;28;20233;-77
2021/06/20 05:24:03;;;;;;;;;;;23.50;72.70;;;;;;5051802;28;19920;-77
2021/06/20 05:26:28;;;;;;;;;;;23.70;73.00;;;;;;5048608;28;19912;-77
2021/06/20 05:28:54;;;;;;;;;;;23.90;72.40;;;;;;5018488;28;19913;-77
2021/06/20 05:31:20;;;;;;;;;;;24.00;71.60;;;;;;5046883;28;20039;-76
2021/06/20 05:33:45;;;;;;;;;;;24.20;71.30;;;;;;5046518;28;19980;-77
2021/06/20 05:36:11;;;;;;;;;;;24.20;70.70;;;;;;5044438;28;19944;-77
2021/06/20 05:38:36;;;;;;;;;;;24.10;70.90;;;;;;5046703;28;19917;-77
2021/06/20 05:41:02;;;;;;;;;;;24.10;70.60;;;;;;5025891;28;19924;-77
2021/06/20 05:43:28;;;;;;;;;;;24.10;69.30;;;;;;5047674;28;20261;-77
2021/06/20 05:45:53;;;;;;;;;;;23.80;69.80;;;;;;5044907;28;19996;-77
2021/06/20 05:48:19;;;;;;;;;;;23.90;69.80;;;;;;5051675;28;19913;-78
2021/06/20 05:50:44;;;;;;;;;;;24.20;69.30;;;;;;5048900;28;20222;-78
2021/06/20 05:53:10;;;;;;;;;;;24.00;69.60;;;;;;5049916;28;19974;-78
2021/06/20 05:55:35;;;;;;;;;;;24.10;69.60;;;;;;5032894;28;20313;-77
2021/06/20 05:58:01;;;;;;;;;;;23.90;70.10;;;;;;5052139;28;19935;-78
2021/06/20 06:00:27;;;;;;;;;;;24.00;70.70;;;;;;5051036;28;20214;-77
2021/06/20 06:02:52;;;;;;;;;;;24.20;69.20;;;;;;5034028;28;19967;-78
2021/06/20 06:05:18;;;;;;;;;;;24.30;69.20;;;;;;5049194;28;21600;-76
2021/06/20 06:07:45;;;;;;;;;;;24.40;69.10;;;;;;5049303;28;19912;-77
2021/06/20 06:10:10;;;;;;;;;;;24.40;69.30;;;;;;5048968;28;19919;-77
2021/06/20 06:12:36;;;;;;;;;;;24.30;69.00;;;;;;5050677;28;19913;-77
2021/06/20 06:15:02;;;;;;;;;;;24.40;68.20;;;;;;5034310;28;20367;-77
2021/06/20 06:17:28;;;;;;;;;;;24.30;68.70;;;;;;5032661;28;19913;-77
2021/06/20 06:19:53;;;;;;;;;;;24.10;69.40;;;;;;5050222;28;20004;-77
2021/06/20 06:22:20;;;;;;;;;;;24.20;69.80;;;;;;5048348;28;19923;-77
2021/06/20 06:24:46;;;;;;;;;;;24.50;69.10;;;;;;5048060;28;20317;-78
2021/06/20 06:27:12;;;;;;;;;;;24.90;68.80;;;;;;5049140;28;19913;-78
2021/06/20 06:29:38;;;;;;;;;;;25.10;68.60;;;;;;5054104;28;19916;-77
2021/06/20 06:32:04;;;;;;;;;;;25.20;68.60;;;;;;5053506;28;19966;-78
2021/06/20 06:34:30;;;;;;;;;;;25.20;67.90;;;;;;5052391;28;20329;-77
2021/06/20 06:36:57;;;;;;;;;;;25.10;68.00;;;;;;5052493;28;19913;-78
2021/06/20 06:39:22;;;;;;;;;;;24.50;68.00;;;;;;5033824;28;19973;-78
2021/06/20 06:41:48;;;;;;;;;;;24.30;68.70;;;;;;5053575;28;19979;-77
2021/06/20 06:44:16;;;;;;;;;;;24.40;68.90;;;;;;5053964;28;19917;-77
2021/06/20 06:46:42;;;;;;;;;;;24.30;68.50;;;;;;5052401;28;19920;-77
2021/06/20 06:49:07;;;;;;;;;;;24.10;69.70;;;;;;5051282;28;19912;-78
2021/06/20 06:51:33;;;;;;;;;;;23.90;70.40;;;;;;5033982;28;19963;-77
2021/06/20 06:53:59;;;;;;;;;;;23.70;70.50;;;;;;5052057;28;19979;-78
2021/06/20 06:56:24;;;;;;;;;;;23.50;71.70;;;;;;5047396;28;20221;-77
2021/06/20 06:58:50;;;;;;;;;;;23.40;71.30;;;;;;5045934;28;19913;-77
2021/06/20 07:01:15;;;;;;;;;;;23.30;71.80;;;;;;5050132;28;20279;-78
2021/06/20 07:03:41;;;;;;;;;;;23.20;71.70;;;;;;5050900;28;19958;-77
2021/06/20 07:06:06;;;;;;;;;;;23.10;74.40;;;;;;5050780;28;20079;-78
2021/06/20 07:08:32;;;;;;;;;;;22.80;72.20;;;;;;5051911;28;19913;-78
2021/06/20 07:10:57;;;;;;;;;;;22.80;75.50;;;;;;5050971;28;19917;-77
2021/06/20 07:13:23;;;;;;;;;;;23.00;77.10;;;;;;5045475;28;19917;-78
2021/06/20 07:15:48;;;;;;;;;;;22.90;76.40;;;;;;5054154;28;20306;-78
2021/06/20 07:18:15;;;;;;;;;;;22.80;75.40;;;;;;5056964;28;19938;-77
2021/06/20 07:20:40;;;;;;;;;;;22.70;76.30;;;;;;5055703;28;19917;-77
2021/06/20 07:23:06;;;;;;;;;;;22.60;78.50;;;;;;5056923;28;19919;-77
2021/06/20 07:25:32;;;;;;;;;;;22.50;78.00;;;;;;5045859;28;19916;-75
2021/06/20 07:27:57;;;;;;;;;;;22.40;77.90;;;;;;5039196;28;20298;-76
2021/06/20 07:30:23;;;;;;;;;;;22.40;77.30;;;;;;5056593;28;20210;-76
2021/06/20 07:32:50;;;;;;;;;;;22.50;78.50;;;;;;5048874;28;19913;-77
2021/06/20 07:35:15;;;;;;;;;;;22.60;78.50;;;;;;5038382;28;19929;-77
2021/06/20 07:37:41;;;;;;;;;;;22.80;80.10;;;;;;5057490;28;19909;-78
2021/06/20 07:40:08;;;;;;;;;;;23.00;77.80;;;;;;5056902;28;19916;-78
2021/06/20 07:42:34;;;;;;;;;;;23.40;80.30;;;;;;5056249;28;19951;-77
2021/06/20 07:44:59;;;;;;;;;;;23.60;79.10;;;;;;5056550;28;19952;-77
2021/06/20 07:47:25;;;;;;;;;;;23.70;78.90;;;;;;5056792;28;19913;-78
2021/06/20 07:49:50;;;;;;;;;;;23.80;79.10;;;;;;5056808;28;19913;-78
2021/06/20 07:52:16;;;;;;;;;;;23.60;82.40;;;;;;5053184;28;19966;-77
2021/06/20 07:54:49;;;;;;;;;;;23.30;83.60;;;;;;5051005;28;19920;-77
2021/06/20 07:57:18;;;;;;;;;;;23.40;84.60;;;;;;5056830;28;20050;-79
2021/06/20 07:59:45;;;;;;;;;;;23.60;83.20;;;;;;5038995;28;19917;-77
2021/06/20 08:02:10;;;;;;;;;;;23.80;82.60;;;;;;5056516;28;19909;-77
2021/06/20 08:04:36;;;;;;;;;;;23.60;83.30;;;;;;5034200;28;19920;-77
2021/06/20 08:07:01;;;;;;;;;;;23.80;82.40;;;;;;5048294;28;19917;-78
2021/06/20 08:09:27;;;;;;;;;;;23.80;83.10;;;;;;5047063;28;19917;-78
2021/06/20 08:11:52;;;;;;;;;;;23.90;81.40;;;;;;5056927;28;19955;-79
2021/06/20 08:14:19;;;;;;;;;;;24.00;81.20;;;;;;5055583;28;20290;-78
2021/06/20 08:16:45;;;;;;;;;;;24.20;80.30;;;;;;5056809;28;20008;-77
2021/06/20 08:19:10;;;;;;;;;;;24.40;79.30;;;;;;5056471;28;19952;-77
2021/06/20 08:21:36;;;;;;;;;;;24.40;80.50;;;;;;5037638;28;20255;-77
2021/06/20 08:24:01;;;;;;;;;;;24.60;80.10;;;;;;5054813;28;20375;-78
2021/06/20 08:26:27;;;;;;;;;;;25.00;80.70;;;;;;5056527;28;19908;-77
2021/06/20 08:28:52;;;;;;;;;;;25.50;77.60;;;;;;5056200;28;19947;-78
2021/06/20 08:31:18;;;;;;;;;;;25.80;76.20;;;;;;5056520;28;19920;-78
2021/06/20 08:33:43;;;;;;;;;;;25.60;77.00;;;;;;5055939;28;20284;-78
2021/06/20 08:36:09;;;;;;;;;;;25.80;76.00;;;;;;5036250;28;20389;-78
2021/06/20 08:38:35;;;;;;;;;;;25.90;73.90;;;;;;5056150;28;20003;-77
2021/06/20 08:41:01;;;;;;;;;;;26.10;74.80;;;;;;5056006;28;19917;-78
2021/06/20 08:43:27;;;;;;;;;;;26.30;71.00;;;;;;5047648;28;19913;-77
2021/06/20 08:45:53;;;;;;;;;;;26.80;72.90;;;;;;5055481;28;19920;-78
2021/06/20 08:48:19;;;;;;;;;;;27.50;69.20;;;;;;5055983;28;19999;-78
2021/06/20 08:50:45;;;;;;;;;;;27.90;62.20;;;;;;5036614;28;20008;-78
2021/06/20 08:53:13;;;;;;;;;;;27.80;63.40;;;;;;5055172;28;20340;-78
2021/06/20 08:55:39;;;;;;;;;;;27.50;65.10;;;;;;5055982;28;19917;-78
2021/06/20 08:58:19;;;;;;;;;;;27.70;65.50;;;;;;5055805;28;20024;-78
2021/06/20 09:00:44;;;;;;;;;;;28.10;63.70;;;;;;5054849;28;19916;-78
2021/06/20 09:03:10;;;;;;;;;;;27.80;64.60;;;;;;5051861;28;20217;-78
2021/06/20 09:05:35;;;;;;;;;;;28.30;64.50;;;;;;5054385;28;20255;-79
2021/06/20 09:08:01;;;;;;;;;;;28.70;60.50;;;;;;5055880;28;19908;-78
2021/06/20 09:10:29;;;;;;;;;;;29.10;60.10;;;;;;5055100;28;19920;-78
2021/06/20 09:12:56;;;;;;;;;;;29.10;61.20;;;;;;5048740;28;19928;-79
2021/06/20 09:15:29;;;;;;;;;;;29.00;60.70;;;;;;5045068;28;20210;-77
2021/06/20 09:18:02;;;;;;;;;;;28.90;60.50;;;;;;5037608;28;19917;-78
2021/06/20 09:20:43;;;;;;;;;;;29.00;61.00;;;;;;5054192;28;19924;-78
2021/06/20 09:23:10;;;;;;;;;;;29.00;59.30;;;;;;5050109;28;19917;-78
2021/06/20 09:25:37;;;;;;;;;;;29.10;59.70;;;;;;5049628;28;19916;-78
2021/06/20 09:28:04;;;;;;;;;;;28.90;60.50;;;;;;5055590;28;20431;-78
2021/06/20 09:30:30;;;;;;;;;;;29.00;60.80;;;;;;5055760;28;20241;-78
2021/06/20 09:32:57;;;;;;;;;;;29.30;61.30;;;;;;5054655;28;20480;-78
2021/06/20 09:35:23;;;;;;;;;;;29.50;61.50;;;;;;5054140;28;19921;-78
2021/06/20 09:37:49;;;;;;;;;;;29.70;61.50;;;;;;5054984;28;19923;-78
2021/06/20 09:40:16;;;;;;;;;;;30.20;59.00;;;;;;5055075;28;20270;-78
2021/06/20 09:42:41;;;;;;;;;;;30.70;58.90;;;;;;5054566;28;19951;-78
2021/06/20 09:45:07;;;;;;;;;;;30.70;59.80;;;;;;5055125;28;20313;-78
2021/06/20 09:47:37;;;;;;;;;;;30.70;58.20;;;;;;5055656;28;19920;-77
2021/06/20 09:50:03;;;;;;;;;;;31.20;59.60;;;;;;5053888;28;19909;-78
2021/06/20 09:52:33;;;;;;;;;;;31.60;58.90;;;;;;5054931;28;20214;-78
2021/06/20 09:54:59;;;;;;;;;;;31.60;58.50;;;;;;5051896;28;19920;-78
2021/06/20 09:57:37;;;;;;;;;;;32.40;57.80;;;;;;5036498;28;19916;-79
2021/06/20 10:00:05;;;;;;;;;;;32.70;56.30;;;;;;5037156;28;19920;-78
2021/06/20 10:02:31;;;;;;;;;;;32.80;56.50;;;;;;5057258;28;20309;-79
2021/06/20 10:04:57;;;;;;;;;;;32.60;57.70;;;;;;5058116;28;19920;-78
2021/06/20 10:07:28;;;;;;;;;;;32.40;56.00;;;;;;5052683;28;19913;-79
2021/06/20 10:09:54;;;;;;;;;;;32.50;56.30;;;;;;5054731;28;19912;-78
2021/06/20 10:12:22;;;;;;;;;;;32.70;59.30;;;;;;5053604;28;19919;-78
2021/06/20 10:14:47;;;;;;;;;;;33.10;58.30;;;;;;5059061;28;19913;-78
2021/06/20 10:17:16;;;;;;;;;;;33.40;56.90;;;;;;5058432;28;19966;-77
2021/06/20 10:19:49;;;;;;;;;;;33.40;57.90;;;;;;5058725;28;19919;-76
2021/06/20 10:22:16;;;;;;;;;;;33.30;57.20;;;;;;5056006;28;19921;-76
2021/06/20 10:24:52;;;;;;;;;;;33.40;59.00;;;;;;5058174;28;19912;-77
2021/06/20 10:27:27;;;;;;;;;;;33.20;56.50;;;;;;5057659;28;19917;-76
2021/06/20 10:29:53;;;;;;;;;;;31.50;60.50;;;;;;5040556;28;19913;-77
2021/06/20 10:32:20;;;;;;;;;;;31.60;61.70;;;;;;5056650;28;20339;-78
2021/06/20 10:35:01;;;;;;;;;;;31.80;60.60;;;;;;5050308;28;19978;-78
2021/06/20 10:37:34;;;;;;;;;;;31.80;59.80;;;;;;5057945;28;20226;-78
2021/06/20 10:40:03;;;;;;;;;;;30.80;62.10;;;;;;5057692;28;19913;-77
2021/06/20 10:42:37;;;;;;;;;;;30.20;61.00;;;;;;5039405;28;20332;-77
2021/06/20 10:45:06;;;;;;;;;;;29.80;62.80;;;;;;5055114;28;19919;-78
2021/06/20 10:47:39;;;;;;;;;;;29.40;63.60;;;;;;5044820;28;20035;-78
2021/06/20 10:50:06;;;;;;;;;;;29.70;64.70;;;;;;5044915;28;20261;-77
2021/06/20 10:52:31;;;;;;;;;;;30.60;61.80;;;;;;5040210;28;19955;-78
2021/06/20 10:55:06;;;;;;;;;;;30.80;60.80;;;;;;5057555;28;19986;-78
2021/06/20 10:57:32;;;;;;;;;;;31.10;60.90;;;;;;5057677;28;19935;-78
2021/06/20 10:59:59;;;;;;;;;;;31.40;60.80;;;;;;5058093;28;20305;-78
2021/06/20 11:02:30;;;;;;;;;;;32.20;57.70;;;;;;5057109;28;20322;-78
2021/06/20 11:04:56;;;;;;;;;;;32.40;58.90;;;;;;5056954;28;19935;-77
2021/06/20 11:07:22;;;;;;;;;;;31.90;60.70;;;;;;5056960;28;19917;-78
2021/06/20 11:09:48;;;;;;;;;;;31.90;59.70;;;;;;5057352;28;19912;-78
2021/06/20 11:12:14;;;;;;;;;;;31.80;60.80;;;;;;5057282;28;20332;-78
2021/06/20 11:14:44;;;;;;;;;;;31.90;58.20;;;;;;5039584;28;20323;-77
2021/06/20 11:17:09;;;;;;;;;;;32.10;57.90;;;;;;5056714;28;19982;-78
2021/06/20 11:19:35;;;;;;;;;;;32.50;57.90;;;;;;5039889;28;20325;-78
2021/06/20 11:22:02;;;;;;;;;;;33.20;59.30;;;;;;5052203;28;19921;-78
2021/06/20 11:24:36;;;;;;;;;;;33.80;57.50;;;;;;5056983;28;19948;-78
2021/06/20 11:27:01;;;;;;;;;;;33.70;56.50;;;;;;5056584;28;19913;-78
2021/06/20 11:29:47;;;;;;;;;;;32.50;57.90;;;;;;5057545;28;20306;-78
2021/06/20 11:32:23;;;;;;;;;;;32.70;55.80;;;;;;5033458;28;19913;-78
2021/06/20 11:34:55;;;;;;;;;;;32.90;58.20;;;;;;5057606;28;19975;-77
2021/06/20 11:37:22;;;;;;;;;;;33.30;57.80;;;;;;5056996;28;19916;-77
2021/06/20 11:39:49;;;;;;;;;;;33.00;57.00;;;;;;5045647;28;19920;-78
2021/06/20 11:42:24;;;;;;;;;;;33.30;55.90;;;;;;5025392;28;19975;-78
2021/06/20 11:44:54;;;;;;;;;;;33.20;55.90;;;;;;5051828;28;20212;-78
2021/06/20 11:47:26;;;;;;;;;;;33.30;56.70;;;;;;5057119;28;19917;-78
2021/06/20 11:49:52;;;;;;;;;;;33.50;55.80;;;;;;5056844;28;19944;-77
2021/06/20 11:52:21;;;;;;;;;;;33.40;55.60;;;;;;5056365;28;19966;-78
2021/06/20 11:54:46;;;;;;;;;;;33.40;56.00;;;;;;5039513;28;20225;-78
2021/06/20 11:57:12;;;;;;;;;;;33.30;57.90;;;;;;5041777;28;20008;-76
2021/06/20 11:59:42;;;;;;;;;;;33.20;56.70;;;;;;5056178;28;20008;-77
2021/06/20 12:02:13;;;;;;;;;;;32.90;58.50;;;;;;5041302;28;19940;-77
2021/06/20 12:04:43;;;;;;;;;;;32.20;58.00;;;;;;5047713;28;20313;-77
2021/06/20 12:07:09;;;;;;;;;;;32.60;59.60;;;;;;5053410;28;19913;-77
2021/06/20 12:09:38;;;;;;;;;;;33.80;55.40;;;;;;5056347;28;19966;-77
2021/06/20 12:12:04;;;;;;;;;;;34.50;52.90;;;;;;5045403;28;19919;-77
2021/06/20 12:14:31;;;;;;;;;;;34.60;51.50;;;;;;5055736;28;19991;-77
2021/06/20 12:16:57;;;;;;;;;;;34.00;53.60;;;;;;5055212;28;19917;-77
2021/06/20 12:19:24;;;;;;;;;;;33.90;53.40;;;;;;5038265;28;19913;-77
2021/06/20 12:21:50;;;;;;;;;;;34.10;56.00;;;;;;5054390;28;19916;-77
2021/06/20 12:24:16;;;;;;;;;;;34.20;53.70;;;;;;5038112;28;19913;-77
2021/06/20 12:26:52;;;;;;;;;;;34.00;56.20;;;;;;5038578;28;19919;-77
2021/06/20 12:29:18;;;;;;;;;;;34.10;55.90;;;;;;5056170;28;19913;-77
2021/06/20 12:31:54;;;;;;;;;;;33.90;54.80;;;;;;5038430;28;19920;-78
2021/06/20 12:34:20;;;;;;;;;;;33.80;57.20;;;;;;5039025;28;20252;-78
2021/06/20 12:36:56;;;;;;;;;;;33.40;57.80;;;;;;5054445;28;19928;-77
2021/06/20 12:39:21;;;;;;;;;;;33.40;57.30;;;;;;5056217;28;19913;-77
2021/06/20 12:41:56;;;;;;;;;;;34.00;57.00;;;;;;5054762;28;20010;-77
2021/06/20 12:44:21;;;;;;;;;;;34.30;55.70;;;;;;5055882;28;20190;-78
2021/06/20 12:46:48;;;;;;;;;;;34.70;56.30;;;;;;5055479;28;19919;-77
2021/06/20 12:49:14;;;;;;;;;;;34.40;55.50;;;;;;5055474;28;20306;-77
2021/06/20 12:51:41;;;;;;;;;;;34.30;57.60;;;;;;5037029;28;19956;-78
2021/06/20 12:54:08;;;;;;;;;;;34.40;56.10;;;;;;5038446;28;20198;-77
2021/06/20 12:56:34;;;;;;;;;;;34.30;55.80;;;;;;5037690;28;19999;-78
2021/06/20 12:59:00;;;;;;;;;;;33.70;57.60;;;;;;5056204;28;20365;-78
2021/06/20 13:01:26;;;;;;;;;;;34.00;57.10;;;;;;5054011;28;19966;-78
2021/06/20 13:03:53;;;;;;;;;;;34.40;57.40;;;;;;5042786;28;19917;-78
2021/06/20 13:06:20;;;;;;;;;;;34.70;56.10;;;;;;5049716;28;19923;-77
2021/06/20 13:08:46;;;;;;;;;;;34.80;55.70;;;;;;5036475;28;19975;-77
2021/06/20 13:11:12;;;;;;;;;;;34.70;57.10;;;;;;5053025;28;20321;-76
2021/06/20 13:13:38;;;;;;;;;;;35.00;53.50;;;;;;5054543;28;19925;-75
2021/06/20 13:16:03;;;;;;;;;;;34.70;55.20;;;;;;5054419;28;20207;-75
2021/06/20 13:18:29;;;;;;;;;;;34.50;55.60;;;;;;5054786;28;19913;-76
2021/06/20 13:20:54;;;;;;;;;;;34.90;56.20;;;;;;5053687;28;19924;-75
2021/06/20 13:23:20;;;;;;;;;;;35.10;54.40;;;;;;5054900;28;20003;-77
2021/06/20 13:25:50;;;;;;;;;;;34.80;54.40;;;;;;5054885;28;19916;-76
2021/06/20 13:28:16;;;;;;;;;;;34.70;55.80;;;;;;5054492;28;20225;-76
2021/06/20 13:30:41;;;;;;;;;;;35.20;55.30;;;;;;5055653;28;19913;-77
2021/06/20 13:33:07;;;;;;;;;;;35.20;54.20;;;;;;5054655;28;20408;-77
2021/06/20 13:35:32;;;;;;;;;;;34.60;54.60;;;;;;5054629;28;19924;-77
2021/06/20 13:38:01;;;;;;;;;;;34.50;54.20;;;;;;5059763;28;20324;-77
2021/06/20 13:40:28;;;;;;;;;;;34.40;53.70;;;;;;5059442;28;19994;-77
2021/06/20 13:42:54;;;;;;;;;;;34.50;56.00;;;;;;5059027;28;19917;-77
2021/06/20 13:45:20;;;;;;;;;;;34.30;54.90;;;;;;5059344;28;19970;-77
2021/06/20 13:47:47;;;;;;;;;;;34.40;55.60;;;;;;5058270;28;20015;-77
2021/06/20 13:50:12;;;;;;;;;;;34.80;52.30;;;;;;5056131;28;19917;-77
2021/06/20 13:52:38;;;;;;;;;;;34.80;53.90;;;;;;5058573;28;19939;-77
2021/06/20 13:55:06;;;;;;;;;;;34.80;54.30;;;;;;5059177;28;19974;-77
2021/06/20 13:57:32;;;;;;;;;;;34.40;54.40;;;;;;5041078;28;20310;-77
2021/06/20 13:59:58;;;;;;;;;;;34.70;54.60;;;;;;5056123;28;19920;-76
2021/06/20 14:02:24;;;;;;;;;;;34.70;54.30;;;;;;5054999;28;19921;-76
2021/06/20 14:04:49;;;;;;;;;;;34.60;54.20;;;;;;5051254;28;19924;-78
2021/06/20 14:07:15;;;;;;;;;;;34.30;54.60;;;;;;5048590;28;19932;-77
2021/06/20 14:09:41;;;;;;;;;;;33.90;55.60;;;;;;5039764;28;19963;-77
2021/06/20 14:12:07;;;;;;;;;;;33.60;55.10;;;;;;5049438;28;19913;-76